Time;durP1;ratioP1;P1;durP2;ratioP2;P2;SDS_P1;SDS_P2;PMS_P1;PMS_P2;Temp;Humidity;BMP_temperature;BMP_pressure;BME280_temperature;BME280_humidity;BME280_pressure;Samples;Min_cycle;Max_cycle;Signal;HPM_P1;HPM_P2
2023/09/04 00:00:53;;;;;;;0.30;0.30;;;;;;;;;;5112658;28;20206;-82
2023/09/04 00:03:21;;;;;;;0.33;0.33;;;;;;;;;;5112580;28;20191;-82
2023/09/04 00:05:51;;;;;;;1.07;1.07;;;;;;;;;;5112177;28;20188;-83
2023/09/04 00:08:20;;;;;;;1.70;1.60;;;;;;;;;;5112328;28;20217;-83
2023/09/04 00:10:49;;;;;;;0.60;0.60;;;;;;;;;;5112620;28;20197;-83
2023/09/04 00:13:18;;;;;;;0.30;0.30;;;;;;;;;;5111826;28;20235;-82
2023/09/04 00:15:47;;;;;;;1.17;1.17;;;;;;;;;;5112391;28;20196;-82
2023/09/04 00:18:15;;;;;;;0.30;0.30;;;;;;;;;;5112228;28;20196;-82
2023/09/04 00:20:44;;;;;;;0.63;0.63;;;;;;;;;;5112212;28;20204;-82
2023/09/04 00:23:14;;;;;;;0.30;0.30;;;;;;;;;;5112352;28;20207;-82
2023/09/04 00:25:42;;;;;;;0.30;0.30;;;;;;;;;;5112230;28;20344;-82
2023/09/04 00:28:12;;;;;;;0.30;0.30;;;;;;;;;;5112102;28;20224;-82
2023/09/04 00:30:43;;;;;;;0.30;0.30;;;;;;;;;;5111724;28;20207;-83
2023/09/04 00:33:11;;;;;;;0.30;0.30;;;;;;;;;;5111992;28;20209;-82
2023/09/04 00:35:39;;;;;;;0.30;0.30;;;;;;;;;;5112511;28;20261;-83
2023/09/04 00:38:08;;;;;;;0.30;0.30;;;;;;;;;;5112920;28;20246;-83
2023/09/04 00:40:38;;;;;;;0.30;0.30;;;;;;;;;;5112422;28;20451;-83
2023/09/04 00:43:06;;;;;;;1.03;1.03;;;;;;;;;;5113370;28;20208;-83
2023/09/04 00:45:36;;;;;;;0.30;0.30;;;;;;;;;;5114948;28;20196;-83
2023/09/04 00:48:04;;;;;;;1.77;1.63;;;;;;;;;;5117060;28;20315;-83
2023/09/04 00:50:33;;;;;;;0.37;0.37;;;;;;;;;;5116515;28;20196;-83
2023/09/04 00:53:04;;;;;;;0.40;0.40;;;;;;;;;;5116126;28;20291;-83
2023/09/04 00:55:32;;;;;;;0.50;0.50;;;;;;;;;;5116342;28;20295;-83
2023/09/04 00:58:02;;;;;;;0.50;0.50;;;;;;;;;;5116248;28;20214;-83
2023/09/04 01:00:31;;;;;;;0.30;0.30;;;;;;;;;;5115494;28;20215;-83
2023/09/04 01:03:02;;;;;;;0.30;0.30;;;;;;;;;;5116255;27;20199;-83
2023/09/04 01:05:32;;;;;;;0.30;0.30;;;;;;;;;;5116264;28;20203;-83
2023/09/04 01:08:01;;;;;;;0.60;0.60;;;;;;;;;;5115635;28;20312;-83
2023/09/04 01:10:34;;;;;;;0.40;0.40;;;;;;;;;;5116226;28;20256;-83
2023/09/04 01:13:08;;;;;;;1.03;0.90;;;;;;;;;;5116066;28;20196;-83
2023/09/04 01:15:37;;;;;;;0.50;0.50;;;;;;;;;;5116071;28;20196;-83
2023/09/04 01:18:05;;;;;;;0.40;0.40;;;;;;;;;;5115976;28;20204;-82
2023/09/04 01:20:35;;;;;;;1.23;1.23;;;;;;;;;;5116079;28;20192;-83
2023/09/04 01:23:04;;;;;;;0.60;0.60;;;;;;;;;;5115583;28;20265;-82
2023/09/04 01:25:37;;;;;;;0.30;0.30;;;;;;;;;;5115543;27;20205;-82
2023/09/04 01:28:10;;;;;;;0.40;0.40;;;;;;;;;;5115849;28;20196;-83
2023/09/04 01:30:46;;;;;;;0.30;0.30;;;;;;;;;;5115884;28;20196;-82
2023/09/04 01:33:19;;;;;;;0.40;0.40;;;;;;;;;;5115437;28;20204;-82
2023/09/04 01:35:51;;;;;;;0.40;0.40;;;;;;;;;;5115504;28;20209;-82
2023/09/04 01:38:19;;;;;;;0.40;0.40;;;;;;;;;;5115656;28;20301;-82
2023/09/04 01:40:51;;;;;;;0.30;0.30;;;;;;;;;;5115501;28;20231;-83
2023/09/04 01:43:20;;;;;;;0.80;0.80;;;;;;;;;;5115750;28;20209;-82
2023/09/04 01:45:48;;;;;;;0.40;0.40;;;;;;;;;;5115906;28;20211;-83
2023/09/04 01:48:17;;;;;;;0.40;0.40;;;;;;;;;;5115252;27;20196;-83
2023/09/04 01:50:46;;;;;;;0.33;0.33;;;;;;;;;;5115551;28;20200;-83
2023/09/04 01:53:16;;;;;;;0.50;0.50;;;;;;;;;;5115417;27;20204;-83
2023/09/04 01:55:45;;;;;;;0.40;0.40;;;;;;;;;;5115030;28;20207;-83
2023/09/04 01:58:13;;;;;;;0.40;0.40;;;;;;;;;;5114801;28;20206;-83
2023/09/04 02:00:43;;;;;;;0.87;0.87;;;;;;;;;;5115063;28;20211;-82
2023/09/04 02:03:11;;;;;;;0.30;0.30;;;;;;;;;;5115513;28;20291;-83
2023/09/04 02:05:40;;;;;;;0.40;0.40;;;;;;;;;;5115593;28;20200;-83
2023/09/04 02:08:09;;;;;;;1.40;1.30;;;;;;;;;;5114910;28;20200;-83
2023/09/04 02:10:39;;;;;;;0.30;0.30;;;;;;;;;;5114478;28;20216;-83
2023/09/04 02:13:07;;;;;;;0.57;0.57;;;;;;;;;;5115124;28;20236;-82
2023/09/04 02:15:38;;;;;;;0.40;0.40;;;;;;;;;;5114615;28;20200;-82
2023/09/04 02:18:07;;;;;;;0.87;0.87;;;;;;;;;;5114718;28;20195;-83
2023/09/04 02:20:35;;;;;;;0.80;0.80;;;;;;;;;;5114595;28;20208;-83
2023/09/04 02:23:04;;;;;;;0.50;0.50;;;;;;;;;;5114864;28;20204;-83
2023/09/04 02:25:33;;;;;;;0.30;0.30;;;;;;;;;;5115057;28;20299;-82
2023/09/04 02:28:03;;;;;;;0.30;0.30;;;;;;;;;;5114511;28;20199;-83
2023/09/04 02:30:32;;;;;;;0.40;0.40;;;;;;;;;;5114589;28;20216;-83
2023/09/04 02:33:00;;;;;;;0.53;0.53;;;;;;;;;;5113825;28;20200;-83
2023/09/04 02:35:29;;;;;;;0.40;0.40;;;;;;;;;;5113981;28;20248;-83
2023/09/04 02:37:57;;;;;;;0.60;0.60;;;;;;;;;;5113091;28;20215;-83
2023/09/04 02:40:26;;;;;;;0.30;0.30;;;;;;;;;;5113724;28;20195;-82
2023/09/04 02:42:54;;;;;;;0.30;0.30;;;;;;;;;;5113335;28;20203;-82
2023/09/04 02:45:24;;;;;;;0.40;0.40;;;;;;;;;;5113475;28;20276;-83
2023/09/04 02:47:56;;;;;;;0.30;0.30;;;;;;;;;;5113783;28;20202;-82
2023/09/04 02:50:24;;;;;;;0.30;0.30;;;;;;;;;;5114404;28;20220;-83
2023/09/04 02:52:53;;;;;;;2.83;1.70;;;;;;;;;;5113816;28;20207;-83
2023/09/04 02:55:21;;;;;;;0.30;0.30;;;;;;;;;;5112958;28;20201;-83
2023/09/04 02:57:50;;;;;;;0.30;0.30;;;;;;;;;;5113333;28;20214;-83
2023/09/04 03:00:19;;;;;;;0.40;0.40;;;;;;;;;;5113437;28;20397;-83
2023/09/04 03:02:50;;;;;;;0.30;0.30;;;;;;;;;;5113722;28;20207;-83
2023/09/04 03:05:19;;;;;;;0.40;0.40;;;;;;;;;;5113302;28;20201;-82
2023/09/04 03:07:48;;;;;;;0.30;0.30;;;;;;;;;;5112970;28;20200;-83
2023/09/04 03:10:16;;;;;;;1.60;0.80;;;;;;;;;;5113238;28;20219;-83
2023/09/04 03:12:44;;;;;;;0.40;0.40;;;;;;;;;;5113023;28;20206;-83
2023/09/04 03:15:13;;;;;;;0.40;0.40;;;;;;;;;;5113161;28;20210;-82
2023/09/04 03:17:42;;;;;;;0.50;0.50;;;;;;;;;;5112941;28;20286;-82
2023/09/04 03:20:13;;;;;;;0.53;0.53;;;;;;;;;;5114161;28;20292;-83
2023/09/04 03:22:43;;;;;;;1.17;1.17;;;;;;;;;;5113119;28;20236;-83
2023/09/04 03:25:12;;;;;;;0.80;0.80;;;;;;;;;;5113825;28;20216;-83
2023/09/04 03:27:41;;;;;;;0.60;0.60;;;;;;;;;;5113484;28;20213;-82
2023/09/04 03:30:12;;;;;;;1.10;1.10;;;;;;;;;;5113775;28;20215;-83
2023/09/04 03:32:40;;;;;;;0.50;0.50;;;;;;;;;;5113521;28;20199;-83
2023/09/04 03:35:09;;;;;;;0.60;0.60;;;;;;;;;;5113781;28;20196;-83
2023/09/04 03:37:39;;;;;;;1.37;1.33;;;;;;;;;;5113519;28;20224;-83
2023/09/04 03:40:20;;;;;;;0.40;0.40;;;;;;;;;;5112638;28;20181;-83
2023/09/04 03:42:49;;;;;;;0.50;0.50;;;;;;;;;;5113338;28;20266;-83
2023/09/04 03:45:17;;;;;;;0.40;0.40;;;;;;;;;;5114040;28;20203;-83
2023/09/04 03:47:46;;;;;;;0.50;0.50;;;;;;;;;;5113331;28;20239;-82
2023/09/04 03:50:16;;;;;;;1.03;1.03;;;;;;;;;;5112970;28;20341;-83
2023/09/04 03:52:46;;;;;;;1.80;1.70;;;;;;;;;;5113374;28;20197;-83
2023/09/04 03:55:15;;;;;;;0.50;0.50;;;;;;;;;;5114034;28;20291;-83
2023/09/04 03:57:46;;;;;;;0.40;0.40;;;;;;;;;;5112950;28;20256;-83
2023/09/04 04:00:19;;;;;;;0.77;0.77;;;;;;;;;;5113316;28;20225;-83
2023/09/04 04:02:48;;;;;;;0.30;0.30;;;;;;;;;;5112641;28;20202;-83
2023/09/04 04:05:18;;;;;;;0.40;0.40;;;;;;;;;;5112693;28;20275;-83
2023/09/04 04:07:48;;;;;;;0.40;0.40;;;;;;;;;;5112193;28;20200;-83
2023/09/04 04:10:17;;;;;;;0.53;0.53;;;;;;;;;;5112842;28;20211;-83
2023/09/04 04:12:46;;;;;;;0.40;0.40;;;;;;;;;;5111945;28;20210;-83
2023/09/04 04:15:14;;;;;;;0.50;0.50;;;;;;;;;;5111936;28;20254;-83
2023/09/04 04:17:43;;;;;;;0.40;0.40;;;;;;;;;;5111963;28;20203;-83
2023/09/04 04:20:12;;;;;;;0.30;0.30;;;;;;;;;;5114058;28;20212;-83
2023/09/04 04:22:41;;;;;;;0.50;0.50;;;;;;;;;;5116303;28;20207;-83
2023/09/04 04:25:12;;;;;;;0.90;0.90;;;;;;;;;;5116090;28;20197;-83
2023/09/04 04:27:41;;;;;;;0.40;0.40;;;;;;;;;;5116997;28;20199;-83
2023/09/04 04:30:10;;;;;;;0.40;0.40;;;;;;;;;;5116865;28;20212;-83
2023/09/04 04:32:39;;;;;;;0.30;0.30;;;;;;;;;;5116030;28;20202;-83
2023/09/04 04:35:08;;;;;;;0.40;0.40;;;;;;;;;;5115734;28;20219;-83
2023/09/04 04:37:36;;;;;;;2.73;1.60;;;;;;;;;;5116368;28;20232;-83
2023/09/04 04:40:06;;;;;;;0.40;0.40;;;;;;;;;;5116314;28;20204;-83
2023/09/04 04:42:36;;;;;;;0.40;0.40;;;;;;;;;;5115374;28;20235;-83
2023/09/04 04:45:04;;;;;;;0.70;0.70;;;;;;;;;;5116128;28;20203;-83
2023/09/04 04:47:33;;;;;;;0.50;0.50;;;;;;;;;;5116111;28;20204;-83
2023/09/04 04:50:01;;;;;;;0.40;0.40;;;;;;;;;;5115863;28;20231;-82
2023/09/04 04:52:30;;;;;;;0.40;0.40;;;;;;;;;;5115343;28;20196;-83
2023/09/04 04:54:58;;;;;;;0.40;0.40;;;;;;;;;;5115450;28;20213;-83
2023/09/04 04:57:27;;;;;;;0.50;0.50;;;;;;;;;;5116213;28;20206;-83
2023/09/04 04:59:57;;;;;;;0.50;0.50;;;;;;;;;;5115683;27;20203;-82
2023/09/04 05:02:25;;;;;;;0.40;0.40;;;;;;;;;;5115401;28;20227;-83
2023/09/04 05:04:55;;;;;;;1.83;1.53;;;;;;;;;;5115793;28;20290;-82
2023/09/04 05:07:23;;;;;;;1.43;1.03;;;;;;;;;;5116276;28;20328;-83
2023/09/04 05:09:53;;;;;;;0.97;0.60;;;;;;;;;;5116018;28;20218;-83
2023/09/04 05:12:22;;;;;;;0.83;0.83;;;;;;;;;;5115713;28;20247;-83
2023/09/04 05:14:50;;;;;;;0.70;0.70;;;;;;;;;;5115849;28;20235;-83
2023/09/04 05:17:20;;;;;;;0.40;0.40;;;;;;;;;;5115728;28;20201;-83
2023/09/04 05:19:49;;;;;;;0.40;0.40;;;;;;;;;;5115309;28;20196;-83
2023/09/04 05:22:18;;;;;;;0.40;0.40;;;;;;;;;;5115261;28;20196;-83
2023/09/04 05:24:46;;;;;;;0.40;0.40;;;;;;;;;;5115408;28;20211;-82
2023/09/04 05:27:18;;;;;;;0.40;0.40;;;;;;;;;;5115673;28;20203;-83
2023/09/04 05:29:47;;;;;;;0.40;0.40;;;;;;;;;;5115320;28;20284;-83
2023/09/04 05:32:19;;;;;;;0.60;0.60;;;;;;;;;;5114765;28;20270;-84
2023/09/04 05:34:52;;;;;;;0.50;0.50;;;;;;;;;;5115577;27;20203;-83
2023/09/04 05:37:21;;;;;;;0.40;0.40;;;;;;;;;;5114530;28;20267;-84
2023/09/04 05:39:49;;;;;;;0.83;0.83;;;;;;;;;;5115605;28;20199;-83
2023/09/04 05:42:18;;;;;;;0.40;0.40;;;;;;;;;;5115374;28;20278;-83
2023/09/04 05:44:46;;;;;;;0.30;0.30;;;;;;;;;;5115077;28;20206;-83
2023/09/04 05:47:15;;;;;;;0.70;0.70;;;;;;;;;;5115188;28;20216;-83
2023/09/04 05:49:43;;;;;;;0.30;0.30;;;;;;;;;;5115056;28;20193;-82
2023/09/04 05:52:13;;;;;;;0.40;0.40;;;;;;;;;;5115351;28;20215;-83
2023/09/04 05:54:42;;;;;;;0.40;0.40;;;;;;;;;;5114371;28;20203;-82
2023/09/04 05:57:10;;;;;;;0.50;0.50;;;;;;;;;;5114205;28;20202;-83
2023/09/04 05:59:39;;;;;;;0.93;0.93;;;;;;;;;;5114768;28;20273;-81
2023/09/04 06:02:07;;;;;;;0.40;0.40;;;;;;;;;;5114921;28;20196;-83
2023/09/04 06:04:36;;;;;;;0.40;0.40;;;;;;;;;;5115362;28;20213;-83
2023/09/04 06:07:05;;;;;;;0.97;0.97;;;;;;;;;;5115137;28;20200;-84
2023/09/04 06:09:35;;;;;;;0.40;0.40;;;;;;;;;;5114848;27;20225;-83
2023/09/04 06:12:03;;;;;;;0.43;0.43;;;;;;;;;;5114604;28;20219;-83
2023/09/04 06:14:32;;;;;;;0.30;0.30;;;;;;;;;;5114335;28;20235;-83
2023/09/04 06:17:00;;;;;;;0.40;0.40;;;;;;;;;;5115299;28;20200;-83
2023/09/04 06:19:29;;;;;;;0.50;0.50;;;;;;;;;;5115035;28;20220;-83
2023/09/04 06:21:57;;;;;;;0.60;0.60;;;;;;;;;;5113114;28;20220;-83
2023/09/04 06:24:25;;;;;;;2.50;1.80;;;;;;;;;;5114789;28;20263;-81
2023/09/04 06:26:55;;;;;;;3.97;3.00;;;;;;;;;;5114439;28;20205;-82
2023/09/04 06:29:24;;;;;;;1.97;1.87;;;;;;;;;;5114418;28;20201;-81
2023/09/04 06:31:53;;;;;;;1.60;1.50;;;;;;;;;;5115103;28;20649;-81
2023/09/04 06:34:21;;;;;;;0.60;0.60;;;;;;;;;;5115278;28;20200;-81
2023/09/04 06:36:50;;;;;;;1.50;1.40;;;;;;;;;;5114930;28;20219;-81
2023/09/04 06:39:18;;;;;;;2.40;1.67;;;;;;;;;;5114839;28;20200;-81
2023/09/04 06:41:47;;;;;;;2.07;1.93;;;;;;;;;;5114265;28;20189;-80
2023/09/04 06:44:16;;;;;;;2.17;1.97;;;;;;;;;;5114215;28;20200;-80
2023/09/04 06:46:45;;;;;;;0.60;0.60;;;;;;;;;;5114725;28;20236;-81
2023/09/04 06:49:14;;;;;;;4.10;2.70;;;;;;;;;;5114096;28;20198;-81
2023/09/04 06:51:43;;;;;;;1.57;1.47;;;;;;;;;;5114147;28;20234;-81
2023/09/04 06:54:11;;;;;;;0.43;0.43;;;;;;;;;;5114715;28;20192;-81
2023/09/04 06:56:40;;;;;;;1.73;1.63;;;;;;;;;;5114504;28;20192;-81
2023/09/04 06:59:09;;;;;;;3.57;3.10;;;;;;;;;;5115000;28;20211;-81
2023/09/04 07:01:40;;;;;;;5.27;4.40;;;;;;;;;;5114586;28;20196;-81
2023/09/04 07:04:10;;;;;;;1.33;1.30;;;;;;;;;;5114514;28;20207;-81
2023/09/04 07:06:39;;;;;;;3.97;3.60;;;;;;;;;;5113754;28;20294;-81
2023/09/04 07:09:07;;;;;;;3.67;2.73;;;;;;;;;;5114347;28;20201;-81
2023/09/04 07:11:36;;;;;;;5.50;4.00;;;;;;;;;;5113912;28;20222;-81
2023/09/04 07:14:05;;;;;;;6.80;4.47;;;;;;;;;;5113980;28;20232;-81
2023/09/04 07:16:37;;;;;;;4.73;2.97;;;;;;;;;;5113368;28;20235;-81
2023/09/04 07:19:19;;;;;;;3.83;3.53;;;;;;;;;;5113767;28;20208;-81
2023/09/04 07:21:47;;;;;;;3.90;3.47;;;;;;;;;;5113542;28;20199;-81
2023/09/04 07:24:16;;;;;;;1.70;1.33;;;;;;;;;;5112833;28;20197;-81
2023/09/04 07:26:44;;;;;;;3.40;3.03;;;;;;;;;;5114325;28;20192;-82
2023/09/04 07:29:13;;;;;;;1.90;1.80;;;;;;;;;;5117193;28;20200;-83
2023/09/04 07:31:42;;;;;;;3.40;2.60;;;;;;;;;;5116383;28;20215;-83
2023/09/04 07:34:10;;;;;;;1.23;1.13;;;;;;;;;;5113957;28;20203;-84
2023/09/04 07:36:40;;;;;;;1.07;0.97;;;;;;;;;;5114728;28;20221;-83
2023/09/04 07:39:09;;;;;;;1.03;0.97;;;;;;;;;;5114338;28;20211;-83
2023/09/04 07:41:37;;;;;;;0.40;0.40;;;;;;;;;;5113902;28;20197;-84
2023/09/04 07:44:06;;;;;;;4.53;3.77;;;;;;;;;;5113668;28;20207;-83
2023/09/04 07:46:34;;;;;;;2.73;2.03;;;;;;;;;;5113665;28;20196;-83
2023/09/04 07:49:03;;;;;;;2.73;2.53;;;;;;;;;;5113691;28;20232;-83
2023/09/04 07:51:31;;;;;;;1.03;1.03;;;;;;;;;;5112992;28;20285;-83
2023/09/04 07:54:05;;;;;;;2.80;2.50;;;;;;;;;;5113388;28;20222;-84
2023/09/04 07:56:33;;;;;;;6.57;3.60;;;;;;;;;;5117758;28;20206;-82
2023/09/04 07:59:05;;;;;;;4.77;4.10;;;;;;;;;;5117585;27;20194;-84
2023/09/04 08:01:33;;;;;;;4.10;3.00;;;;;;;;;;5116883;28;20250;-84
2023/09/04 08:04:02;;;;;;;4.90;4.33;;;;;;;;;;5117381;28;20204;-83
2023/09/04 08:06:31;;;;;;;4.77;4.00;;;;;;;;;;5117516;28;20223;-83
2023/09/04 08:08:59;;;;;;;7.03;4.70;;;;;;;;;;5117337;28;20287;-83
2023/09/04 08:11:29;;;;;;;3.00;2.77;;;;;;;;;;5117283;28;20202;-83
2023/09/04 08:13:58;;;;;;;3.77;3.43;;;;;;;;;;5117068;28;20231;-83
2023/09/04 08:16:26;;;;;;;3.47;2.33;;;;;;;;;;5117262;28;20201;-83
2023/09/04 08:18:55;;;;;;;1.23;0.90;;;;;;;;;;5117044;28;20223;-83
2023/09/04 08:21:23;;;;;;;5.17;3.67;;;;;;;;;;5117226;28;20216;-83
2023/09/04 08:23:52;;;;;;;1.97;1.83;;;;;;;;;;5117205;28;20195;-83
2023/09/04 08:26:20;;;;;;;4.07;3.43;;;;;;;;;;5117146;28;20192;-82
2023/09/04 08:28:50;;;;;;;4.57;3.17;;;;;;;;;;5116569;28;20199;-83
2023/09/04 08:31:19;;;;;;;4.50;3.43;;;;;;;;;;5117321;28;20243;-83
2023/09/04 08:33:47;;;;;;;2.97;2.17;;;;;;;;;;5116871;28;20216;-83
2023/09/04 08:36:16;;;;;;;4.27;3.87;;;;;;;;;;5116880;28;20354;-83
2023/09/04 08:38:45;;;;;;;5.20;4.63;;;;;;;;;;5116710;28;20237;-83
2023/09/04 08:41:15;;;;;;;5.10;3.30;;;;;;;;;;5116860;28;20214;-83
2023/09/04 08:43:46;;;;;;;5.17;2.13;;;;;;;;;;5116690;28;20198;-84
2023/09/04 08:46:17;;;;;;;1.43;1.33;;;;;;;;;;5115579;28;20198;-83
2023/09/04 08:48:46;;;;;;;2.30;1.80;;;;;;;;;;5116347;28;20195;-84
2023/09/04 08:51:16;;;;;;;2.40;2.20;;;;;;;;;;5116595;28;20201;-84
2023/09/04 08:53:45;;;;;;;3.50;3.20;;;;;;;;;;5116292;28;20229;-84
2023/09/04 08:56:15;;;;;;;0.93;0.93;;;;;;;;;;5116291;28;20219;-84
2023/09/04 08:58:43;;;;;;;3.27;2.43;;;;;;;;;;5116075;28;20196;-83
2023/09/04 09:01:14;;;;;;;2.60;1.73;;;;;;;;;;5115883;28;20202;-84
2023/09/04 09:03:45;;;;;;;4.23;2.67;;;;;;;;;;5116229;28;20200;-84
2023/09/04 09:06:14;;;;;;;4.13;3.40;;;;;;;;;;5116588;28;20195;-84
2023/09/04 09:08:44;;;;;;;3.43;3.13;;;;;;;;;;5116294;28;20200;-84
2023/09/04 09:11:15;;;;;;;3.30;3.00;;;;;;;;;;5116358;28;20206;-84
2023/09/04 09:13:44;;;;;;;2.40;2.20;;;;;;;;;;5116307;28;20233;-84
2023/09/04 09:16:18;;;;;;;3.20;2.90;;;;;;;;;;5116146;28;20266;-84
2023/09/04 09:18:49;;;;;;;4.07;2.97;;;;;;;;;;5115512;28;20209;-84
2023/09/04 09:21:28;;;;;;;1.80;1.43;;;;;;;;;;5115104;28;20297;-84
2023/09/04 09:24:07;;;;;;;2.90;2.60;;;;;;;;;;5116386;28;20286;-84
2023/09/04 09:26:35;;;;;;;4.07;3.20;;;;;;;;;;5116136;28;20222;-84
2023/09/04 09:29:06;;;;;;;4.50;3.27;;;;;;;;;;5112415;28;20209;-83
2023/09/04 09:31:36;;;;;;;6.23;4.17;;;;;;;;;;5102837;27;20206;-83
2023/09/04 09:34:10;;;;;;;3.40;3.10;;;;;;;;;;5095299;28;20221;-82
2023/09/04 09:36:39;;;;;;;4.20;3.80;;;;;;;;;;5098851;28;20290;-82
2023/09/04 09:39:08;;;;;;;4.40;3.87;;;;;;;;;;5096368;28;20207;-82
2023/09/04 09:41:37;;;;;;;3.00;2.67;;;;;;;;;;5105070;28;20202;-82
2023/09/04 09:44:05;;;;;;;3.00;2.23;;;;;;;;;;5104089;28;20300;-83
2023/09/04 09:46:34;;;;;;;4.03;3.17;;;;;;;;;;5100160;28;20208;-82
2023/09/04 09:49:03;;;;;;;4.63;3.37;;;;;;;;;;5098538;28;20327;-83
2023/09/04 09:51:34;;;;;;;5.80;5.27;;;;;;;;;;5100017;28;20215;-84
2023/09/04 09:54:05;;;;;;;4.00;3.70;;;;;;;;;;5102029;28;20223;-83
2023/09/04 09:56:34;;;;;;;4.10;3.30;;;;;;;;;;5097501;28;20258;-83
2023/09/04 09:59:03;;;;;;;4.33;3.90;;;;;;;;;;5099234;28;20228;-83
2023/09/04 10:01:32;;;;;;;5.70;5.17;;;;;;;;;;5101794;28;20200;-83
2023/09/04 10:04:01;;;;;;;4.17;3.60;;;;;;;;;;5105447;28;20204;-83
2023/09/04 10:06:34;;;;;;;4.33;3.27;;;;;;;;;;5101374;28;20293;-83
2023/09/04 10:09:08;;;;;;;4.03;3.63;;;;;;;;;;5099840;28;20208;-82
2023/09/04 10:11:39;;;;;;;4.83;3.43;;;;;;;;;;5099605;28;20274;-82
2023/09/04 10:14:13;;;;;;;1.13;1.13;;;;;;;;;;5099986;28;20235;-81
2023/09/04 10:16:44;;;;;;;2.10;1.83;;;;;;;;;;5101631;28;20214;-82
2023/09/04 10:19:13;;;;;;;4.80;3.77;;;;;;;;;;5104835;28;20291;-82
2023/09/04 10:21:44;;;;;;;4.80;3.50;;;;;;;;;;5095707;28;20212;-82
2023/09/04 10:24:14;;;;;;;1.83;1.53;;;;;;;;;;5103876;28;20208;-82
2023/09/04 10:26:48;;;;;;;6.77;5.20;;;;;;;;;;5109841;28;20191;-82
2023/09/04 10:29:19;;;;;;;6.97;5.43;;;;;;;;;;5102215;28;20204;-82
2023/09/04 10:31:49;;;;;;;4.33;3.20;;;;;;;;;;5100425;28;20213;-82
2023/09/04 10:34:19;;;;;;;5.63;3.83;;;;;;;;;;5098210;28;20229;-82
2023/09/04 10:36:48;;;;;;;4.80;4.00;;;;;;;;;;5099907;28;20224;-82
2023/09/04 10:39:21;;;;;;;3.83;3.50;;;;;;;;;;5100245;28;20200;-83
2023/09/04 10:41:49;;;;;;;1.87;1.73;;;;;;;;;;5100425;28;20209;-82
2023/09/04 10:44:33;;;;;;;3.43;3.13;;;;;;;;;;5112311;28;20207;-82
2023/09/04 10:47:01;;;;;;;6.23;4.13;;;;;;;;;;5105796;28;20200;-82
2023/09/04 10:49:31;;;;;;;1.97;1.67;;;;;;;;;;5110200;28;20206;-82
2023/09/04 10:52:00;;;;;;;5.03;2.83;;;;;;;;;;5109511;28;20206;-83
2023/09/04 10:54:30;;;;;;;2.87;2.10;;;;;;;;;;5112775;28;20218;-82
2023/09/04 10:57:00;;;;;;;5.03;4.53;;;;;;;;;;5113022;28;20200;-82
2023/09/04 10:59:30;;;;;;;4.20;3.60;;;;;;;;;;5109852;28;20205;-82
2023/09/04 11:01:59;;;;;;;5.30;3.23;;;;;;;;;;5110442;28;20220;-82
2023/09/04 11:04:31;;;;;;;4.27;3.63;;;;;;;;;;5112437;28;20201;-82
2023/09/04 11:07:18;;;;;;;6.00;5.17;;;;;;;;;;5112746;28;20206;-82
2023/09/04 11:09:54;;;;;;;8.17;5.37;;;;;;;;;;5105208;28;20217;-83
2023/09/04 11:12:23;;;;;;;10.50;5.03;;;;;;;;;;5112479;28;20201;-82
2023/09/04 11:14:53;;;;;;;6.67;4.43;;;;;;;;;;5112380;28;20274;-83
2023/09/04 11:17:23;;;;;;;5.80;4.87;;;;;;;;;;5111144;28;20206;-82
2023/09/04 11:19:52;;;;;;;7.10;4.37;;;;;;;;;;5112390;28;20233;-83
2023/09/04 11:22:22;;;;;;;4.57;3.77;;;;;;;;;;5112888;28;20213;-82
2023/09/04 11:24:53;;;;;;;6.27;5.17;;;;;;;;;;5111990;28;20202;-83
2023/09/04 11:27:23;;;;;;;7.10;6.17;;;;;;;;;;5107705;28;20200;-82
2023/09/04 11:29:52;;;;;;;7.47;5.10;;;;;;;;;;5105984;28;20213;-83
2023/09/04 11:32:21;;;;;;;4.57;3.10;;;;;;;;;;5112167;28;20244;-83
2023/09/04 11:34:50;;;;;;;6.23;5.20;;;;;;;;;;5111593;28;20257;-82
2023/09/04 11:37:19;;;;;;;4.93;4.00;;;;;;;;;;5096022;28;20449;-82
2023/09/04 11:39:53;;;;;;;4.73;2.90;;;;;;;;;;5112069;28;20221;-82
2023/09/04 11:42:29;;;;;;;6.57;5.20;;;;;;;;;;5109894;28;20213;-82
2023/09/04 11:44:58;;;;;;;3.33;3.03;;;;;;;;;;5109005;28;20197;-83
2023/09/04 11:47:27;;;;;;;4.63;4.23;;;;;;;;;;5100105;28;21469;-82
2023/09/04 11:49:55;;;;;;;5.70;3.37;;;;;;;;;;5103141;28;20208;-82
2023/09/04 11:52:26;;;;;;;7.07;4.90;;;;;;;;;;5110034;28;20205;-83
2023/09/04 11:54:54;;;;;;;5.83;4.80;;;;;;;;;;5112196;28;20218;-83
2023/09/04 11:57:23;;;;;;;3.80;2.93;;;;;;;;;;5102377;28;20208;-82
2023/09/04 11:59:55;;;;;;;4.77;4.07;;;;;;;;;;5094214;28;20204;-83
2023/09/04 12:02:24;;;;;;;3.73;3.23;;;;;;;;;;5112160;28;20225;-82
2023/09/04 12:04:56;;;;;;;5.00;3.00;;;;;;;;;;5112144;28;20286;-82
2023/09/04 12:07:24;;;;;;;7.40;6.07;;;;;;;;;;5100943;28;20220;-81
2023/09/04 12:09:53;;;;;;;7.60;3.40;;;;;;;;;;5111799;28;20214;-82
2023/09/04 12:12:22;;;;;;;11.03;5.23;;;;;;;;;;5106240;28;20218;-82
2023/09/04 12:14:51;;;;;;;5.63;3.97;;;;;;;;;;5110257;28;20234;-81
2023/09/04 12:17:21;;;;;;;6.47;4.07;;;;;;;;;;5107976;28;20198;-82
2023/09/04 12:19:49;;;;;;;3.53;2.53;;;;;;;;;;5107779;28;20211;-82
2023/09/04 12:22:20;;;;;;;5.90;5.10;;;;;;;;;;5097291;28;20208;-82
2023/09/04 12:25:03;;;;;;;11.50;3.00;;;;;;;;;;5104637;28;20215;-82
2023/09/04 12:27:33;;;;;;;5.93;5.00;;;;;;;;;;5096423;28;20212;-83
2023/09/04 12:30:04;;;;;;;1.83;1.73;;;;;;;;;;5104404;28;20230;-81
2023/09/04 12:32:35;;;;;;;6.20;5.40;;;;;;;;;;5111568;28;20211;-82
2023/09/04 12:35:07;;;;;;;3.53;3.03;;;;;;;;;;5099490;28;20291;-82
2023/09/04 12:37:36;;;;;;;9.07;3.47;;;;;;;;;;5112133;28;20262;-82
2023/09/04 12:40:05;;;;;;;2.77;2.57;;;;;;;;;;5112225;28;20284;-83
2023/09/04 12:42:38;;;;;;;3.97;3.63;;;;;;;;;;5097202;28;20220;-82
2023/09/04 12:45:07;;;;;;;3.77;2.73;;;;;;;;;;5099459;28;20193;-83
2023/09/04 12:47:37;;;;;;;2.77;2.57;;;;;;;;;;5115206;28;20281;-82
2023/09/04 12:50:06;;;;;;;1.80;1.70;;;;;;;;;;5107658;28;20240;-83
2023/09/04 12:52:35;;;;;;;3.13;2.10;;;;;;;;;;5101264;28;20311;-82
2023/09/04 12:55:05;;;;;;;5.60;3.87;;;;;;;;;;5099675;28;20282;-83
2023/09/04 12:57:33;;;;;;;5.33;3.53;;;;;;;;;;5108990;28;20208;-83
2023/09/04 13:00:03;;;;;;;7.00;5.40;;;;;;;;;;5102846;28;20207;-83
2023/09/04 13:02:31;;;;;;;0.90;0.90;;;;;;;;;;5096326;28;20219;-82
2023/09/04 13:05:01;;;;;;;8.00;6.07;;;;;;;;;;5101322;28;20461;-84
2023/09/04 13:07:32;;;;;;;7.50;4.33;;;;;;;;;;5100634;28;20223;-83
2023/09/04 13:10:00;;;;;;;3.07;2.37;;;;;;;;;;5100126;28;20206;-82
2023/09/04 13:12:29;;;;;;;6.50;4.57;;;;;;;;;;5103185;28;20227;-82
2023/09/04 13:14:57;;;;;;;5.97;3.23;;;;;;;;;;5101433;28;20245;-83
2023/09/04 13:17:26;;;;;;;1.70;1.60;;;;;;;;;;5111732;27;20217;-82
2023/09/04 13:19:55;;;;;;;3.33;3.03;;;;;;;;;;5099636;28;20435;-82
2023/09/04 13:22:25;;;;;;;6.60;4.83;;;;;;;;;;5106968;28;20301;-84
2023/09/04 13:24:53;;;;;;;8.07;4.20;;;;;;;;;;5102851;28;20218;-84
2023/09/04 13:27:22;;;;;;;1.13;0.90;;;;;;;;;;5103480;28;20206;-84
2023/09/04 13:29:51;;;;;;;3.03;2.60;;;;;;;;;;5100679;28;20240;-83
2023/09/04 13:32:21;;;;;;;4.17;2.37;;;;;;;;;;5102415;28;20313;-84
2023/09/04 13:34:50;;;;;;;4.43;2.63;;;;;;;;;;5103934;27;20208;-83
2023/09/04 13:37:18;;;;;;;7.57;5.07;;;;;;;;;;5101462;28;20222;-83
2023/09/04 13:39:48;;;;;;;4.77;4.07;;;;;;;;;;5100385;28;20203;-83
2023/09/04 13:42:20;;;;;;;4.57;4.00;;;;;;;;;;5099117;28;20214;-83
2023/09/04 13:44:49;;;;;;;3.17;2.90;;;;;;;;;;5102485;28;20207;-84
2023/09/04 13:47:23;;;;;;;5.77;4.03;;;;;;;;;;5105807;28;20208;-84
2023/09/04 13:49:52;;;;;;;3.77;3.40;;;;;;;;;;5095872;28;20201;-84
2023/09/04 13:52:20;;;;;;;5.73;4.83;;;;;;;;;;5097779;27;20211;-84
2023/09/04 13:54:51;;;;;;;4.37;3.37;;;;;;;;;;5103466;28;20442;-83
2023/09/04 13:57:20;;;;;;;2.43;1.70;;;;;;;;;;5094066;28;20207;-83
2023/09/04 13:59:48;;;;;;;17.93;1.40;;;;;;;;;;5099826;28;20221;-83
2023/09/04 14:02:17;;;;;;;4.20;2.50;;;;;;;;;;5098646;28;20270;-83
2023/09/04 14:04:45;;;;;;;2.67;2.10;;;;;;;;;;5106929;28;20198;-82
2023/09/04 14:07:14;;;;;;;6.63;4.43;;;;;;;;;;5093886;28;20197;-83
2023/09/04 14:09:43;;;;;;;6.93;4.87;;;;;;;;;;5113458;27;20200;-83
2023/09/04 14:12:13;;;;;;;4.80;4.40;;;;;;;;;;5100236;28;20209;-84
2023/09/04 14:14:41;;;;;;;6.70;6.07;;;;;;;;;;5103103;28;20301;-84
2023/09/04 14:17:10;;;;;;;5.07;3.00;;;;;;;;;;5102083;27;20224;-83
2023/09/04 14:19:39;;;;;;;5.63;3.53;;;;;;;;;;5097978;28;20197;-83
2023/09/04 14:22:08;;;;;;;5.77;5.00;;;;;;;;;;5101484;28;20189;-84
2023/09/04 14:24:36;;;;;;;0.97;0.93;;;;;;;;;;5102694;28;20229;-84
2023/09/04 14:27:05;;;;;;;6.00;4.40;;;;;;;;;;5100470;28;20200;-83
2023/09/04 14:29:35;;;;;;;3.90;2.93;;;;;;;;;;5113223;28;20209;-84
2023/09/04 14:32:04;;;;;;;2.40;2.03;;;;;;;;;;5108756;28;20209;-83
2023/09/04 14:34:33;;;;;;;3.30;2.40;;;;;;;;;;5109352;28;20222;-83
2023/09/04 14:37:01;;;;;;;1.57;1.43;;;;;;;;;;5110769;28;20232;-83
2023/09/04 14:39:41;;;;;;;3.20;2.90;;;;;;;;;;5109491;28;20192;-83
2023/09/04 14:42:13;;;;;;;5.73;2.33;;;;;;;;;;5105600;28;20205;-83
2023/09/04 14:44:43;;;;;;;2.13;1.77;;;;;;;;;;5108468;28;20290;-84
2023/09/04 14:47:13;;;;;;;2.47;2.27;;;;;;;;;;5097255;28;20181;-83
2023/09/04 14:49:42;;;;;;;5.73;3.97;;;;;;;;;;5108740;27;20205;-83
2023/09/04 14:52:10;;;;;;;3.50;2.67;;;;;;;;;;5110746;28;20224;-83
2023/09/04 14:54:39;;;;;;;2.70;2.47;;;;;;;;;;5110846;28;20209;-84
2023/09/04 14:57:10;;;;;;;3.70;2.93;;;;;;;;;;5106517;28;20299;-84